sensor_id;sensor_type;location;lat;lon;timestamp;P1;durP1;ratioP1;P2;durP2;ratioP2
5801;SDS011;2927;49.366;8.530;2022-09-29T00:00:25;13.57;;;7.17;;
5801;SDS011;2927;49.366;8.530;2022-09-29T00:02:51;18.60;;;7.40;;
5801;SDS011;2927;49.366;8.530;2022-09-29T00:05:17;12.70;;;6.60;;
5801;SDS011;2927;49.366;8.530;2022-09-29T00:07:43;19.53;;;7.37;;
5801;SDS011;2927;49.366;8.530;2022-09-29T00:10:08;10.00;;;6.50;;
5801;SDS011;2927;49.366;8.530;2022-09-29T00:12:34;10.17;;;6.23;;
5801;SDS011;2927;49.366;8.530;2022-09-29T00:15:00;16.17;;;7.67;;
5801;SDS011;2927;49.366;8.530;2022-09-29T00:17:26;11.47;;;6.07;;
5801;SDS011;2927;49.366;8.530;2022-09-29T00:19:52;10.10;;;5.97;;
5801;SDS011;2927;49.366;8.530;2022-09-29T00:22:17;12.10;;;6.00;;
5801;SDS011;2927;49.366;8.530;2022-09-29T00:24:43;10.00;;;5.97;;
5801;SDS011;2927;49.366;8.530;2022-09-29T00:27:08;10.73;;;5.73;;
5801;SDS011;2927;49.366;8.530;2022-09-29T00:29:34;11.37;;;6.37;;
5801;SDS011;2927;49.366;8.530;2022-09-29T00:31:59;18.73;;;8.50;;
5801;SDS011;2927;49.366;8.530;2022-09-29T00:34:25;16.40;;;6.87;;
5801;SDS011;2927;49.366;8.530;2022-09-29T00:36:51;16.00;;;7.37;;
5801;SDS011;2927;49.366;8.530;2022-09-29T00:39:16;13.13;;;5.80;;
5801;SDS011;2927;49.366;8.530;2022-09-29T00:41:42;15.57;;;7.93;;
5801;SDS011;2927;49.366;8.530;2022-09-29T00:46:43;32.83;;;10.40;;
5801;SDS011;2927;49.366;8.530;2022-09-29T00:49:36;19.33;;;9.70;;
5801;SDS011;2927;49.366;8.530;2022-09-29T00:52:04;22.30;;;10.90;;
5801;SDS011;2927;49.366;8.530;2022-09-29T00:55:46;18.80;;;9.50;;
5801;SDS011;2927;49.366;8.530;2022-09-29T00:58:05;26.90;;;13.43;;
5801;SDS011;2927;49.366;8.530;2022-09-29T01:00:40;30.73;;;11.13;;
5801;SDS011;2927;49.366;8.530;2022-09-29T01:03:07;29.57;;;12.90;;
5801;SDS011;2927;49.366;8.530;2022-09-29T01:05:38;26.20;;;12.93;;
5801;SDS011;2927;49.366;8.530;2022-09-29T01:08:15;29.50;;;13.73;;
5801;SDS011;2927;49.366;8.530;2022-09-29T01:10:46;32.93;;;13.77;;
5801;SDS011;2927;49.366;8.530;2022-09-29T01:13:13;44.03;;;14.80;;
5801;SDS011;2927;49.366;8.530;2022-09-29T01:15:39;46.73;;;16.90;;
5801;SDS011;2927;49.366;8.530;2022-09-29T01:18:04;36.33;;;15.07;;
5801;SDS011;2927;49.366;8.530;2022-09-29T01:20:31;35.30;;;15.17;;
5801;SDS011;2927;49.366;8.530;2022-09-29T01:31:28;34.20;;;13.77;;
5801;SDS011;2927;49.366;8.530;2022-09-29T01:42:20;29.07;;;13.20;;
5801;SDS011;2927;49.366;8.530;2022-09-29T01:49:51;34.20;;;15.00;;
5801;SDS011;2927;49.366;8.530;2022-09-29T01:52:30;32.90;;;14.77;;
5801;SDS011;2927;49.366;8.530;2022-09-29T01:55:04;38.73;;;16.30;;
5801;SDS011;2927;49.366;8.530;2022-09-29T01:57:53;33.80;;;13.07;;
5801;SDS011;2927;49.366;8.530;2022-09-29T02:00:31;37.53;;;15.80;;
5801;SDS011;2927;49.366;8.530;2022-09-29T02:05:39;36.20;;;17.03;;
5801;SDS011;2927;49.366;8.530;2022-09-29T02:08:09;30.57;;;15.13;;
5801;SDS011;2927;49.366;8.530;2022-09-29T02:10:40;34.57;;;14.53;;
5801;SDS011;2927;49.366;8.530;2022-09-29T02:13:19;37.20;;;14.70;;
5801;SDS011;2927;49.366;8.530;2022-09-29T02:15:47;36.10;;;15.43;;
5801;SDS011;2927;49.366;8.530;2022-09-29T02:18:19;38.23;;;15.53;;
5801;SDS011;2927;49.366;8.530;2022-09-29T02:20:47;27.87;;;13.03;;
5801;SDS011;2927;49.366;8.530;2022-09-29T02:23:14;44.53;;;13.37;;
5801;SDS011;2927;49.366;8.530;2022-09-29T02:25:40;34.07;;;14.80;;
5801;SDS011;2927;49.366;8.530;2022-09-29T02:28:06;30.73;;;14.30;;
5801;SDS011;2927;49.366;8.530;2022-09-29T02:30:33;36.33;;;14.70;;
5801;SDS011;2927;49.366;8.530;2022-09-29T02:36:39;34.70;;;13.70;;
5801;SDS011;2927;49.366;8.530;2022-09-29T02:58:14;37.00;;;13.67;;
5801;SDS011;2927;49.366;8.530;2022-09-29T03:00:56;35.60;;;13.13;;
5801;SDS011;2927;49.366;8.530;2022-09-29T03:03:23;30.97;;;11.50;;
5801;SDS011;2927;49.366;8.530;2022-09-29T03:05:49;30.43;;;12.77;;
5801;SDS011;2927;49.366;8.530;2022-09-29T03:08:15;38.33;;;14.07;;
5801;SDS011;2927;49.366;8.530;2022-09-29T03:10:41;42.13;;;14.90;;
5801;SDS011;2927;49.366;8.530;2022-09-29T03:13:06;47.20;;;14.20;;
5801;SDS011;2927;49.366;8.530;2022-09-29T03:15:32;37.00;;;12.40;;
5801;SDS011;2927;49.366;8.530;2022-09-29T03:17:57;38.87;;;12.03;;
5801;SDS011;2927;49.366;8.530;2022-09-29T03:20:23;39.30;;;12.73;;
5801;SDS011;2927;49.366;8.530;2022-09-29T03:22:50;35.50;;;12.23;;
5801;SDS011;2927;49.366;8.530;2022-09-29T03:25:20;29.93;;;12.43;;
5801;SDS011;2927;49.366;8.530;2022-09-29T03:27:47;26.90;;;10.67;;
5801;SDS011;2927;49.366;8.530;2022-09-29T03:30:14;27.77;;;10.67;;
5801;SDS011;2927;49.366;8.530;2022-09-29T03:32:40;25.50;;;11.50;;
5801;SDS011;2927;49.366;8.530;2022-09-29T03:35:09;28.73;;;11.63;;
5801;SDS011;2927;49.366;8.530;2022-09-29T03:37:36;28.93;;;11.13;;
5801;SDS011;2927;49.366;8.530;2022-09-29T03:40:02;29.23;;;11.13;;
5801;SDS011;2927;49.366;8.530;2022-09-29T03:42:29;22.73;;;9.80;;
5801;SDS011;2927;49.366;8.530;2022-09-29T03:44:55;26.37;;;10.43;;
5801;SDS011;2927;49.366;8.530;2022-09-29T03:47:20;25.00;;;10.90;;
5801;SDS011;2927;49.366;8.530;2022-09-29T03:49:46;29.40;;;10.50;;
5801;SDS011;2927;49.366;8.530;2022-09-29T03:52:11;33.73;;;11.20;;
5801;SDS011;2927;49.366;8.530;2022-09-29T03:54:37;27.40;;;9.97;;
5801;SDS011;2927;49.366;8.530;2022-09-29T03:57:03;21.70;;;9.63;;
5801;SDS011;2927;49.366;8.530;2022-09-29T03:59:28;25.03;;;10.13;;
5801;SDS011;2927;49.366;8.530;2022-09-29T04:01:54;26.80;;;10.37;;
5801;SDS011;2927;49.366;8.530;2022-09-29T04:04:20;27.43;;;10.90;;
5801;SDS011;2927;49.366;8.530;2022-09-29T04:06:46;35.03;;;11.83;;
5801;SDS011;2927;49.366;8.530;2022-09-29T04:09:12;28.10;;;10.37;;
5801;SDS011;2927;49.366;8.530;2022-09-29T04:11:37;27.53;;;9.87;;
5801;SDS011;2927;49.366;8.530;2022-09-29T04:14:03;36.00;;;10.13;;
5801;SDS011;2927;49.366;8.530;2022-09-29T04:16:29;25.20;;;10.93;;
5801;SDS011;2927;49.366;8.530;2022-09-29T04:18:54;27.63;;;11.00;;
5801;SDS011;2927;49.366;8.530;2022-09-29T04:21:20;30.27;;;10.27;;
5801;SDS011;2927;49.366;8.530;2022-09-29T04:23:45;29.83;;;9.63;;
5801;SDS011;2927;49.366;8.530;2022-09-29T04:26:11;22.90;;;9.70;;
5801;SDS011;2927;49.366;8.530;2022-09-29T04:28:38;20.67;;;9.23;;
5801;SDS011;2927;49.366;8.530;2022-09-29T04:31:04;27.07;;;8.97;;
5801;SDS011;2927;49.366;8.530;2022-09-29T04:33:30;14.47;;;7.20;;
5801;SDS011;2927;49.366;8.530;2022-09-29T04:35:56;18.30;;;9.17;;
5801;SDS011;2927;49.366;8.530;2022-09-29T04:38:22;17.83;;;7.93;;
5801;SDS011;2927;49.366;8.530;2022-09-29T04:40:48;25.53;;;10.67;;
5801;SDS011;2927;49.366;8.530;2022-09-29T04:43:13;21.87;;;9.13;;
5801;SDS011;2927;49.366;8.530;2022-09-29T04:45:39;22.77;;;10.13;;
5801;SDS011;2927;49.366;8.530;2022-09-29T04:48:05;22.50;;;9.60;;
5801;SDS011;2927;49.366;8.530;2022-09-29T04:50:31;24.63;;;9.10;;
5801;SDS011;2927;49.366;8.530;2022-09-29T04:52:57;20.40;;;9.00;;
5801;SDS011;2927;49.366;8.530;2022-09-29T04:55:23;23.83;;;8.60;;
5801;SDS011;2927;49.366;8.530;2022-09-29T04:57:49;19.93;;;8.73;;
5801;SDS011;2927;49.366;8.530;2022-09-29T05:00:15;25.20;;;9.70;;
5801;SDS011;2927;49.366;8.530;2022-09-29T05:02:41;27.40;;;9.30;;
5801;SDS011;2927;49.366;8.530;2022-09-29T05:05:07;32.03;;;9.10;;
5801;SDS011;2927;49.366;8.530;2022-09-29T05:07:34;22.73;;;8.50;;
5801;SDS011;2927;49.366;8.530;2022-09-29T05:10:00;24.90;;;9.53;;
5801;SDS011;2927;49.366;8.530;2022-09-29T05:12:26;28.70;;;9.03;;
5801;SDS011;2927;49.366;8.530;2022-09-29T05:14:52;28.50;;;11.10;;
5801;SDS011;2927;49.366;8.530;2022-09-29T05:17:17;27.40;;;10.07;;
5801;SDS011;2927;49.366;8.530;2022-09-29T05:19:43;25.20;;;9.10;;
5801;SDS011;2927;49.366;8.530;2022-09-29T05:22:08;23.87;;;10.07;;
5801;SDS011;2927;49.366;8.530;2022-09-29T05:24:34;28.60;;;10.80;;
5801;SDS011;2927;49.366;8.530;2022-09-29T05:26:59;28.30;;;10.73;;
5801;SDS011;2927;49.366;8.530;2022-09-29T05:29:25;30.07;;;13.70;;
5801;SDS011;2927;49.366;8.530;2022-09-29T05:31:50;31.20;;;13.30;;
5801;SDS011;2927;49.366;8.530;2022-09-29T05:34:16;28.07;;;10.70;;
5801;SDS011;2927;49.366;8.530;2022-09-29T05:36:42;25.20;;;11.00;;
5801;SDS011;2927;49.366;8.530;2022-09-29T05:39:08;20.97;;;9.87;;
5801;SDS011;2927;49.366;8.530;2022-09-29T05:41:33;31.30;;;11.00;;
5801;SDS011;2927;49.366;8.530;2022-09-29T05:43:59;20.87;;;9.50;;
5801;SDS011;2927;49.366;8.530;2022-09-29T05:46:25;30.70;;;11.07;;
5801;SDS011;2927;49.366;8.530;2022-09-29T05:48:51;27.03;;;12.83;;
5801;SDS011;2927;49.366;8.530;2022-09-29T05:51:17;25.73;;;10.50;;
5801;SDS011;2927;49.366;8.530;2022-09-29T05:53:45;29.85;;;12.82;;
5801;SDS011;2927;49.366;8.530;2022-09-29T05:56:15;21.53;;;9.67;;
5801;SDS011;2927;49.366;8.530;2022-09-29T05:58:45;23.97;;;9.70;;
5801;SDS011;2927;49.366;8.530;2022-09-29T06:01:15;22.93;;;9.07;;
5801;SDS011;2927;49.366;8.530;2022-09-29T06:03:42;23.97;;;10.30;;
5801;SDS011;2927;49.366;8.530;2022-09-29T06:06:08;19.40;;;9.27;;
5801;SDS011;2927;49.366;8.530;2022-09-29T06:08:35;27.93;;;10.40;;
5801;SDS011;2927;49.366;8.530;2022-09-29T06:13:31;26.97;;;10.83;;
5801;SDS011;2927;49.366;8.530;2022-09-29T06:15:58;22.20;;;9.47;;
5801;SDS011;2927;49.366;8.530;2022-09-29T06:18:24;29.60;;;12.37;;
5801;SDS011;2927;49.366;8.530;2022-09-29T06:20:50;25.63;;;11.17;;
5801;SDS011;2927;49.366;8.530;2022-09-29T06:23:15;32.37;;;11.03;;
5801;SDS011;2927;49.366;8.530;2022-09-29T06:25:41;22.80;;;10.00;;
5801;SDS011;2927;49.366;8.530;2022-09-29T06:28:06;24.47;;;9.83;;
5801;SDS011;2927;49.366;8.530;2022-09-29T06:30:32;39.47;;;13.40;;
5801;SDS011;2927;49.366;8.530;2022-09-29T06:32:57;32.70;;;11.77;;
5801;SDS011;2927;49.366;8.530;2022-09-29T06:35:23;37.30;;;14.47;;
5801;SDS011;2927;49.366;8.530;2022-09-29T06:38:07;30.00;;;11.20;;
5801;SDS011;2927;49.366;8.530;2022-09-29T06:40:33;40.50;;;12.10;;
5801;SDS011;2927;49.366;8.530;2022-09-29T06:42:58;25.40;;;11.67;;
5801;SDS011;2927;49.366;8.530;2022-09-29T06:45:24;27.83;;;9.90;;
5801;SDS011;2927;49.366;8.530;2022-09-29T06:47:49;30.83;;;12.10;;
5801;SDS011;2927;49.366;8.530;2022-09-29T06:50:21;23.13;;;9.67;;
5801;SDS011;2927;49.366;8.530;2022-09-29T06:52:46;31.73;;;10.33;;
5801;SDS011;2927;49.366;8.530;2022-09-29T06:55:14;26.40;;;10.37;;
5801;SDS011;2927;49.366;8.530;2022-09-29T06:57:39;23.30;;;8.40;;
5801;SDS011;2927;49.366;8.530;2022-09-29T07:00:05;19.20;;;8.97;;
5801;SDS011;2927;49.366;8.530;2022-09-29T07:02:31;19.40;;;9.47;;
5801;SDS011;2927;49.366;8.530;2022-09-29T07:04:57;17.90;;;7.90;;
5801;SDS011;2927;49.366;8.530;2022-09-29T07:07:22;17.53;;;7.53;;
5801;SDS011;2927;49.366;8.530;2022-09-29T07:09:48;24.40;;;8.10;;
5801;SDS011;2927;49.366;8.530;2022-09-29T07:12:13;22.00;;;8.40;;
5801;SDS011;2927;49.366;8.530;2022-09-29T07:14:39;18.97;;;8.23;;
5801;SDS011;2927;49.366;8.530;2022-09-29T07:17:04;17.73;;;7.80;;
5801;SDS011;2927;49.366;8.530;2022-09-29T07:19:30;15.57;;;7.07;;
5801;SDS011;2927;49.366;8.530;2022-09-29T07:21:56;13.43;;;8.07;;
5801;SDS011;2927;49.366;8.530;2022-09-29T07:24:22;15.83;;;6.70;;
5801;SDS011;2927;49.366;8.530;2022-09-29T07:26:48;15.93;;;7.23;;
5801;SDS011;2927;49.366;8.530;2022-09-29T07:29:14;13.30;;;6.80;;
5801;SDS011;2927;49.366;8.530;2022-09-29T07:31:40;11.53;;;6.30;;
5801;SDS011;2927;49.366;8.530;2022-09-29T07:34:05;16.23;;;7.17;;
5801;SDS011;2927;49.366;8.530;2022-09-29T07:36:31;13.63;;;6.17;;
5801;SDS011;2927;49.366;8.530;2022-09-29T07:38:57;14.13;;;9.13;;
5801;SDS011;2927;49.366;8.530;2022-09-29T07:41:23;13.33;;;7.57;;
5801;SDS011;2927;49.366;8.530;2022-09-29T07:43:48;13.77;;;6.43;;
5801;SDS011;2927;49.366;8.530;2022-09-29T07:46:15;10.53;;;4.90;;
5801;SDS011;2927;49.366;8.530;2022-09-29T07:48:40;18.70;;;6.73;;
5801;SDS011;2927;49.366;8.530;2022-09-29T07:51:11;14.07;;;5.20;;
5801;SDS011;2927;49.366;8.530;2022-09-29T07:53:39;6.97;;;4.67;;
5801;SDS011;2927;49.366;8.530;2022-09-29T07:58:35;9.70;;;5.93;;
5801;SDS011;2927;49.366;8.530;2022-09-29T08:01:02;12.33;;;5.77;;
5801;SDS011;2927;49.366;8.530;2022-09-29T08:03:30;10.33;;;6.27;;
5801;SDS011;2927;49.366;8.530;2022-09-29T08:05:56;11.83;;;5.47;;
5801;SDS011;2927;49.366;8.530;2022-09-29T08:08:22;10.10;;;5.20;;
5801;SDS011;2927;49.366;8.530;2022-09-29T08:10:47;10.43;;;5.53;;
5801;SDS011;2927;49.366;8.530;2022-09-29T08:13:13;11.73;;;5.10;;
5801;SDS011;2927;49.366;8.530;2022-09-29T08:15:38;11.67;;;5.57;;
5801;SDS011;2927;49.366;8.530;2022-09-29T08:18:04;9.73;;;5.03;;
5801;SDS011;2927;49.366;8.530;2022-09-29T08:20:30;11.80;;;4.40;;
5801;SDS011;2927;49.366;8.530;2022-09-29T08:22:55;16.83;;;4.90;;
5801;SDS011;2927;49.366;8.530;2022-09-29T08:25:22;11.43;;;4.97;;
5801;SDS011;2927;49.366;8.530;2022-09-29T08:27:50;9.90;;;5.00;;
5801;SDS011;2927;49.366;8.530;2022-09-29T08:30:16;15.77;;;5.30;;
5801;SDS011;2927;49.366;8.530;2022-09-29T08:32:41;8.33;;;4.07;;
5801;SDS011;2927;49.366;8.530;2022-09-29T08:35:07;11.70;;;5.20;;
5801;SDS011;2927;49.366;8.530;2022-09-29T08:37:33;7.43;;;4.70;;
5801;SDS011;2927;49.366;8.530;2022-09-29T08:39:59;13.27;;;4.67;;
5801;SDS011;2927;49.366;8.530;2022-09-29T08:45:21;7.03;;;4.20;;
5801;SDS011;2927;49.366;8.530;2022-09-29T08:47:54;13.47;;;4.13;;
5801;SDS011;2927;49.366;8.530;2022-09-29T08:50:55;10.10;;;4.23;;
5801;SDS011;2927;49.366;8.530;2022-09-29T08:53:24;17.20;;;7.47;;
5801;SDS011;2927;49.366;8.530;2022-09-29T08:56:02;10.37;;;4.80;;
5801;SDS011;2927;49.366;8.530;2022-09-29T08:58:31;11.83;;;4.87;;
5801;SDS011;2927;49.366;8.530;2022-09-29T09:23:04;4.57;;;3.67;;
5801;SDS011;2927;49.366;8.530;2022-09-29T09:25:40;18.17;;;5.60;;
5801;SDS011;2927;49.366;8.530;2022-09-29T09:33:57;8.50;;;4.43;;
5801;SDS011;2927;49.366;8.530;2022-09-29T09:39:12;14.67;;;5.20;;
5801;SDS011;2927;49.366;8.530;2022-09-29T09:41:47;11.23;;;4.73;;
5801;SDS011;2927;49.366;8.530;2022-09-29T09:44:18;8.20;;;4.40;;
5801;SDS011;2927;49.366;8.530;2022-09-29T09:46:53;17.00;;;7.20;;
5801;SDS011;2927;49.366;8.530;2022-09-29T09:49:31;7.70;;;4.60;;
5801;SDS011;2927;49.366;8.530;2022-09-29T09:52:03;7.37;;;4.50;;
5801;SDS011;2927;49.366;8.530;2022-09-29T09:54:38;9.97;;;4.37;;
5801;SDS011;2927;49.366;8.530;2022-09-29T09:57:13;13.70;;;5.03;;
5801;SDS011;2927;49.366;8.530;2022-09-29T10:03:06;8.10;;;4.30;;
5801;SDS011;2927;49.366;8.530;2022-09-29T10:08:08;8.90;;;4.30;;
5801;SDS011;2927;49.366;8.530;2022-09-29T10:10:36;66.13;;;19.70;;
5801;SDS011;2927;49.366;8.530;2022-09-29T10:13:07;17.43;;;4.73;;
5801;SDS011;2927;49.366;8.530;2022-09-29T10:20:36;7.67;;;5.13;;
5801;SDS011;2927;49.366;8.530;2022-09-29T10:23:16;9.37;;;4.33;;
5801;SDS011;2927;49.366;8.530;2022-09-29T10:25:50;9.03;;;4.23;;
5801;SDS011;2927;49.366;8.530;2022-09-29T10:28:18;8.20;;;4.73;;
5801;SDS011;2927;49.366;8.530;2022-09-29T10:30:44;7.90;;;5.00;;
5801;SDS011;2927;49.366;8.530;2022-09-29T10:33:14;10.77;;;5.30;;
5801;SDS011;2927;49.366;8.530;2022-09-29T10:35:43;11.87;;;5.40;;
5801;SDS011;2927;49.366;8.530;2022-09-29T10:38:15;12.73;;;4.80;;
5801;SDS011;2927;49.366;8.530;2022-09-29T10:43:38;7.57;;;4.77;;
5801;SDS011;2927;49.366;8.530;2022-09-29T10:54:17;9.93;;;5.30;;
5801;SDS011;2927;49.366;8.530;2022-09-29T10:56:44;9.67;;;4.90;;
5801;SDS011;2927;49.366;8.530;2022-09-29T10:59:14;17.13;;;4.90;;
5801;SDS011;2927;49.366;8.530;2022-09-29T11:01:42;11.90;;;5.30;;
5801;SDS011;2927;49.366;8.530;2022-09-29T11:04:16;10.03;;;4.57;;
5801;SDS011;2927;49.366;8.530;2022-09-29T11:06:50;7.17;;;4.57;;
5801;SDS011;2927;49.366;8.530;2022-09-29T11:14:54;8.70;;;4.50;;
5801;SDS011;2927;49.366;8.530;2022-09-29T11:17:00;6.97;;;3.90;;
5801;SDS011;2927;49.366;8.530;2022-09-29T11:19:30;7.97;;;4.90;;
5801;SDS011;2927;49.366;8.530;2022-09-29T11:28:02;17.23;;;4.20;;
5801;SDS011;2927;49.366;8.530;2022-09-29T11:42:03;7.30;;;3.90;;
5801;SDS011;2927;49.366;8.530;2022-09-29T12:12:38;4.67;;;3.30;;
5801;SDS011;2927;49.366;8.530;2022-09-29T12:15:21;7.10;;;4.00;;
5801;SDS011;2927;49.366;8.530;2022-09-29T12:17:53;4.63;;;3.33;;
5801;SDS011;2927;49.366;8.530;2022-09-29T12:22:51;7.43;;;4.13;;
5801;SDS011;2927;49.366;8.530;2022-09-29T12:25:20;6.67;;;3.30;;
5801;SDS011;2927;49.366;8.530;2022-09-29T12:27:53;6.40;;;3.53;;
5801;SDS011;2927;49.366;8.530;2022-09-29T12:30:27;4.90;;;2.97;;
5801;SDS011;2927;49.366;8.530;2022-09-29T12:41:16;6.93;;;3.10;;
5801;SDS011;2927;49.366;8.530;2022-09-29T12:46:32;3.47;;;2.73;;
5801;SDS011;2927;49.366;8.530;2022-09-29T12:51:45;8.30;;;3.30;;
5801;SDS011;2927;49.366;8.530;2022-09-29T12:57:55;3.67;;;3.13;;
5801;SDS011;2927;49.366;8.530;2022-09-29T13:00:09;4.83;;;3.23;;
5801;SDS011;2927;49.366;8.530;2022-09-29T13:11:16;9.07;;;2.30;;
5801;SDS011;2927;49.366;8.530;2022-09-29T13:14:13;7.80;;;3.57;;
5801;SDS011;2927;49.366;8.530;2022-09-29T13:17:07;2.90;;;2.20;;
5801;SDS011;2927;49.366;8.530;2022-09-29T13:25:41;4.10;;;1.80;;
5801;SDS011;2927;49.366;8.530;2022-09-29T13:28:38;2.40;;;1.67;;
5801;SDS011;2927;49.366;8.530;2022-09-29T13:31:10;5.00;;;2.67;;
5801;SDS011;2927;49.366;8.530;2022-09-29T13:33:47;6.03;;;2.20;;
5801;SDS011;2927;49.366;8.530;2022-09-29T13:36:21;2.80;;;2.37;;
5801;SDS011;2927;49.366;8.530;2022-09-29T13:38:53;2.17;;;1.97;;
5801;SDS011;2927;49.366;8.530;2022-09-29T13:54:25;3.83;;;1.80;;
5801;SDS011;2927;49.366;8.530;2022-09-29T14:02:27;5.97;;;3.07;;
5801;SDS011;2927;49.366;8.530;2022-09-29T14:04:58;3.87;;;2.57;;
5801;SDS011;2927;49.366;8.530;2022-09-29T14:10:16;3.07;;;2.20;;
5801;SDS011;2927;49.366;8.530;2022-09-29T14:12:43;2.70;;;2.00;;
5801;SDS011;2927;49.366;8.530;2022-09-29T14:15:12;6.20;;;2.53;;
5801;SDS011;2927;49.366;8.530;2022-09-29T14:17:43;5.30;;;2.87;;
5801;SDS011;2927;49.366;8.530;2022-09-29T14:25:32;5.97;;;2.87;;
5801;SDS011;2927;49.366;8.530;2022-09-29T14:28:06;7.47;;;3.13;;
5801;SDS011;2927;49.366;8.530;2022-09-29T14:36:11;5.20;;;2.50;;
5801;SDS011;2927;49.366;8.530;2022-09-29T14:38:40;4.50;;;2.80;;
5801;SDS011;2927;49.366;8.530;2022-09-29T14:43:41;4.67;;;2.40;;
5801;SDS011;2927;49.366;8.530;2022-09-29T14:52:21;2.43;;;2.23;;
5801;SDS011;2927;49.366;8.530;2022-09-29T15:00:20;2.20;;;2.00;;
5801;SDS011;2927;49.366;8.530;2022-09-29T15:02:51;4.43;;;2.30;;
5801;SDS011;2927;49.366;8.530;2022-09-29T15:05:24;4.93;;;2.37;;
5801;SDS011;2927;49.366;8.530;2022-09-29T15:07:58;6.20;;;2.37;;
5801;SDS011;2927;49.366;8.530;2022-09-29T15:10:30;11.93;;;2.23;;
5801;SDS011;2927;49.366;8.530;2022-09-29T15:15:55;7.33;;;2.10;;
5801;SDS011;2927;49.366;8.530;2022-09-29T15:26:55;6.90;;;2.53;;
5801;SDS011;2927;49.366;8.530;2022-09-29T15:29:30;4.73;;;2.87;;
5801;SDS011;2927;49.366;8.530;2022-09-29T15:31:56;3.80;;;1.70;;
5801;SDS011;2927;49.366;8.530;2022-09-29T15:34:23;4.13;;;2.03;;
5801;SDS011;2927;49.366;8.530;2022-09-29T15:36:53;3.07;;;1.93;;
5801;SDS011;2927;49.366;8.530;2022-09-29T15:42:02;10.77;;;4.23;;
5801;SDS011;2927;49.366;8.530;2022-09-29T15:44:38;5.43;;;2.10;;
5801;SDS011;2927;49.366;8.530;2022-09-29T15:47:17;6.17;;;2.10;;
5801;SDS011;2927;49.366;8.530;2022-09-29T15:49:52;6.60;;;2.40;;
5801;SDS011;2927;49.366;8.530;2022-09-29T15:52:18;6.80;;;2.43;;
5801;SDS011;2927;49.366;8.530;2022-09-29T15:54:47;1.93;;;1.57;;
5801;SDS011;2927;49.366;8.530;2022-09-29T15:57:28;5.50;;;1.70;;
5801;SDS011;2927;49.366;8.530;2022-09-29T16:03:00;3.40;;;1.47;;
5801;SDS011;2927;49.366;8.530;2022-09-29T16:05:34;4.43;;;2.47;;
5801;SDS011;2927;49.366;8.530;2022-09-29T16:08:03;4.00;;;1.80;;
5801;SDS011;2927;49.366;8.530;2022-09-29T16:10:33;5.17;;;2.60;;
5801;SDS011;2927;49.366;8.530;2022-09-29T16:13:06;7.40;;;2.53;;
5801;SDS011;2927;49.366;8.530;2022-09-29T16:15:43;6.77;;;3.60;;
5801;SDS011;2927;49.366;8.530;2022-09-29T16:18:23;3.90;;;2.80;;
5801;SDS011;2927;49.366;8.530;2022-09-29T16:20:53;52.57;;;18.97;;
5801;SDS011;2927;49.366;8.530;2022-09-29T16:23:21;9.10;;;3.93;;
5801;SDS011;2927;49.366;8.530;2022-09-29T16:26:07;6.67;;;3.60;;
5801;SDS011;2927;49.366;8.530;2022-09-29T16:28:38;9.27;;;3.30;;
5801;SDS011;2927;49.366;8.530;2022-09-29T16:31:25;10.90;;;3.70;;
5801;SDS011;2927;49.366;8.530;2022-09-29T16:33:55;4.03;;;3.07;;
5801;SDS011;2927;49.366;8.530;2022-09-29T16:36:31;8.47;;;3.43;;
5801;SDS011;2927;49.366;8.530;2022-09-29T16:39:00;2.37;;;2.10;;
5801;SDS011;2927;49.366;8.530;2022-09-29T16:41:31;6.07;;;2.43;;
5801;SDS011;2927;49.366;8.530;2022-09-29T16:44:15;10.33;;;2.83;;
5801;SDS011;2927;49.366;8.530;2022-09-29T16:46:50;7.43;;;2.80;;
5801;SDS011;2927;49.366;8.530;2022-09-29T16:49:20;10.70;;;2.90;;
5801;SDS011;2927;49.366;8.530;2022-09-29T16:51:54;8.93;;;3.57;;
5801;SDS011;2927;49.366;8.530;2022-09-29T16:54:25;7.07;;;2.60;;
5801;SDS011;2927;49.366;8.530;2022-09-29T16:57:13;9.40;;;3.87;;
5801;SDS011;2927;49.366;8.530;2022-09-29T16:59:58;11.57;;;4.40;;
5801;SDS011;2927;49.366;8.530;2022-09-29T17:02:27;5.13;;;3.50;;
5801;SDS011;2927;49.366;8.530;2022-09-29T17:04:53;3.00;;;2.50;;
5801;SDS011;2927;49.366;8.530;2022-09-29T17:07:20;5.50;;;2.57;;
5801;SDS011;2927;49.366;8.530;2022-09-29T17:09:54;6.20;;;2.87;;
5801;SDS011;2927;49.366;8.530;2022-09-29T17:12:22;10.87;;;3.03;;
5801;SDS011;2927;49.366;8.530;2022-09-29T17:14:49;8.90;;;3.10;;
5801;SDS011;2927;49.366;8.530;2022-09-29T17:17:16;11.53;;;3.50;;
5801;SDS011;2927;49.366;8.530;2022-09-29T17:19:47;5.30;;;3.90;;
5801;SDS011;2927;49.366;8.530;2022-09-29T17:22:24;8.20;;;3.60;;
5801;SDS011;2927;49.366;8.530;2022-09-29T17:24:56;6.23;;;4.17;;
5801;SDS011;2927;49.366;8.530;2022-09-29T17:27:22;15.73;;;5.00;;
5801;SDS011;2927;49.366;8.530;2022-09-29T17:30:07;5.73;;;3.50;;
5801;SDS011;2927;49.366;8.530;2022-09-29T17:32:34;6.10;;;3.80;;
5801;SDS011;2927;49.366;8.530;2022-09-29T17:35:00;6.47;;;3.70;;
5801;SDS011;2927;49.366;8.530;2022-09-29T17:37:26;3.93;;;3.30;;
5801;SDS011;2927;49.366;8.530;2022-09-29T17:39:51;6.87;;;3.90;;
5801;SDS011;2927;49.366;8.530;2022-09-29T17:42:17;6.03;;;3.50;;
5801;SDS011;2927;49.366;8.530;2022-09-29T17:44:43;3.80;;;2.70;;
5801;SDS011;2927;49.366;8.530;2022-09-29T17:47:13;16.47;;;6.50;;
5801;SDS011;2927;49.366;8.530;2022-09-29T17:49:42;8.90;;;5.20;;
5801;SDS011;2927;49.366;8.530;2022-09-29T17:52:08;7.73;;;4.10;;
5801;SDS011;2927;49.366;8.530;2022-09-29T17:54:39;7.87;;;3.70;;
5801;SDS011;2927;49.366;8.530;2022-09-29T17:57:05;6.13;;;3.23;;
5801;SDS011;2927;49.366;8.530;2022-09-29T17:59:31;3.80;;;2.80;;
5801;SDS011;2927;49.366;8.530;2022-09-29T18:01:58;6.53;;;2.37;;
5801;SDS011;2927;49.366;8.530;2022-09-29T18:04:24;3.77;;;2.77;;
5801;SDS011;2927;49.366;8.530;2022-09-29T18:06:51;7.70;;;3.30;;
5801;SDS011;2927;49.366;8.530;2022-09-29T18:09:17;3.10;;;2.40;;
5801;SDS011;2927;49.366;8.530;2022-09-29T18:11:43;5.70;;;2.33;;
5801;SDS011;2927;49.366;8.530;2022-09-29T18:14:09;5.10;;;2.87;;
5801;SDS011;2927;49.366;8.530;2022-09-29T18:16:35;13.37;;;2.80;;
5801;SDS011;2927;49.366;8.530;2022-09-29T18:19:00;6.37;;;2.37;;
5801;SDS011;2927;49.366;8.530;2022-09-29T18:21:26;4.07;;;1.80;;
5801;SDS011;2927;49.366;8.530;2022-09-29T18:23:53;6.40;;;2.60;;
5801;SDS011;2927;49.366;8.530;2022-09-29T18:26:19;5.90;;;3.60;;
5801;SDS011;2927;49.366;8.530;2022-09-29T18:28:45;8.90;;;3.27;;
5801;SDS011;2927;49.366;8.530;2022-09-29T18:33:47;5.07;;;2.63;;
5801;SDS011;2927;49.366;8.530;2022-09-29T18:36:13;3.87;;;3.47;;
5801;SDS011;2927;49.366;8.530;2022-09-29T18:38:38;9.17;;;3.50;;
5801;SDS011;2927;49.366;8.530;2022-09-29T18:41:04;7.67;;;4.80;;
5801;SDS011;2927;49.366;8.530;2022-09-29T18:43:31;9.60;;;3.93;;
5801;SDS011;2927;49.366;8.530;2022-09-29T18:45:56;8.27;;;3.53;;
5801;SDS011;2927;49.366;8.530;2022-09-29T18:48:22;9.97;;;4.50;;
5801;SDS011;2927;49.366;8.530;2022-09-29T18:50:49;5.60;;;4.03;;
5801;SDS011;2927;49.366;8.530;2022-09-29T18:53:16;19.07;;;5.20;;
5801;SDS011;2927;49.366;8.530;2022-09-29T18:55:43;10.27;;;4.23;;
5801;SDS011;2927;49.366;8.530;2022-09-29T18:58:13;7.03;;;3.10;;
5801;SDS011;2927;49.366;8.530;2022-09-29T19:00:44;6.83;;;3.47;;
5801;SDS011;2927;49.366;8.530;2022-09-29T19:03:12;12.80;;;3.93;;
5801;SDS011;2927;49.366;8.530;2022-09-29T19:05:39;3.20;;;3.00;;
5801;SDS011;2927;49.366;8.530;2022-09-29T19:08:06;10.00;;;4.70;;
5801;SDS011;2927;49.366;8.530;2022-09-29T19:10:32;4.30;;;3.30;;
5801;SDS011;2927;49.366;8.530;2022-09-29T19:13:01;6.50;;;3.30;;
5801;SDS011;2927;49.366;8.530;2022-09-29T19:15:28;9.03;;;3.20;;
5801;SDS011;2927;49.366;8.530;2022-09-29T19:17:55;6.50;;;3.40;;
5801;SDS011;2927;49.366;8.530;2022-09-29T19:20:22;11.23;;;4.70;;
5801;SDS011;2927;49.366;8.530;2022-09-29T19:22:50;9.90;;;5.03;;
5801;SDS011;2927;49.366;8.530;2022-09-29T19:25:20;10.50;;;5.03;;
5801;SDS011;2927;49.366;8.530;2022-09-29T19:27:49;4.10;;;3.07;;
5801;SDS011;2927;49.366;8.530;2022-09-29T19:30:17;7.30;;;3.53;;
5801;SDS011;2927;49.366;8.530;2022-09-29T19:32:44;8.57;;;4.43;;
5801;SDS011;2927;49.366;8.530;2022-09-29T19:35:12;8.60;;;3.97;;